Monday, October 20, 2014, 1:54 PM EDT

KOKV, Winchester Regional

Location: Winchester, VA, United States Lat: 39.15
Local Time: 1:54 PM EDT (17:54 GMT) Lon: -78.15
Time Zone: US/Eastern Elev: 728 ft

Show me the last for .
Show Decoded

2014-10-20 13:35 METAR KOKV 201735Z AUTO 00000KT 10SM CLR 17/01 A2997 RMK AO2 =
2014-10-20 13:15 METAR KOKV 201715Z AUTO 22006KT 10SM CLR 17/01 A2998 RMK AO2 =
2014-10-20 12:55 METAR KOKV 201655Z AUTO 00000KT 10SM CLR 16/01 A3000 RMK AO2 =
2014-10-20 12:35 METAR KOKV 201635Z AUTO 23005KT 10SM CLR 16/01 A3001 RMK AO2 =
2014-10-20 12:15 METAR KOKV 201615Z AUTO 19005KT 10SM CLR 15/01 A3001 RMK AO2 =
2014-10-20 11:55 METAR KOKV 201555Z AUTO 16004KT 10SM CLR 14/00 A3003 RMK AO2 =
2014-10-20 11:35 METAR KOKV 201535Z AUTO 00000KT 10SM CLR 13/00 A3004 RMK AO2 =
2014-10-20 11:15 METAR KOKV 201515Z AUTO 24003KT 10SM CLR 12/01 A3005 RMK AO2 =
2014-10-20 10:55 METAR KOKV 201455Z AUTO 20004KT 10SM CLR 12/00 A3006 RMK AO2 =
2014-10-20 10:35 METAR KOKV 201435Z AUTO 21004KT 10SM CLR 12/01 A3007 RMK AO2 =
2014-10-20 09:55 METAR KOKV 201355Z AUTO 21004KT 10SM CLR 10/01 A3008 RMK AO2 =
2014-10-20 09:35 METAR KOKV 201335Z AUTO 00000KT 10SM CLR 09/02 A3008 RMK AO2 =
2014-10-20 09:15 METAR KOKV 201315Z AUTO 22003KT 10SM CLR 08/01 A3009 RMK AO2 =
2014-10-20 08:55 METAR KOKV 201255Z AUTO 00000KT 10SM CLR 07/01 A3009 RMK AO2 =
2014-10-20 08:35 METAR KOKV 201235Z AUTO 00000KT 10SM CLR 06/01 A3009 RMK AO2 =
2014-10-20 08:15 METAR KOKV 201215Z AUTO 00000KT 10SM CLR 05/02 A3009 RMK AO2 =
2014-10-20 07:35 METAR KOKV 201135Z AUTO 00000KT 10SM CLR 05/01 A3008 RMK AO2 =
2014-10-20 07:15 METAR KOKV 201115Z AUTO 00000KT 10SM CLR 03/00 A3008 RMK AO2 =
2014-10-20 06:55 METAR KOKV 201055Z AUTO 00000KT 10SM CLR 04/01 A3008 RMK AO2 =
2014-10-20 06:35 METAR KOKV 201035Z AUTO 00000KT 10SM CLR 04/01 A3008 RMK AO2 =
2014-10-20 06:15 METAR KOKV 201015Z AUTO 00000KT 10SM CLR 04/01 A3008 RMK AO2 =
2014-10-20 05:55 METAR KOKV 200955Z AUTO 00000KT 10SM CLR 03/01 A3008 RMK AO2 =
2014-10-20 05:35 METAR KOKV 200935Z AUTO 00000KT 10SM CLR 04/01 A3008 RMK AO2 =
2014-10-20 05:15 METAR KOKV 200915Z AUTO 00000KT 10SM CLR 03/01 A3008 RMK AO2 =
2014-10-20 04:55 METAR KOKV 200855Z AUTO 00000KT 10SM CLR 03/00 A3008 RMK AO2 =
2014-10-20 04:35 METAR KOKV 200835Z AUTO 00000KT 10SM CLR 04/00 A3008 RMK AO2 =
2014-10-20 04:15 METAR KOKV 200815Z AUTO 00000KT 10SM CLR 04/00 A3008 RMK AO2 =
2014-10-20 03:55 METAR KOKV 200755Z AUTO 00000KT 10SM CLR 03/00 A3008 RMK AO2 =
2014-10-20 03:35 METAR KOKV 200735Z AUTO 00000KT 10SM CLR 05/00 A3008 RMK AO2 =
2014-10-20 03:15 METAR KOKV 200715Z AUTO 29003KT 10SM CLR 05/00 A3009 RMK AO2 =
2014-10-20 02:35 METAR KOKV 200635Z AUTO 00000KT 10SM CLR 05/00 A3009 RMK AO2 =
2014-10-20 02:15 METAR KOKV 200615Z AUTO 00000KT 10SM CLR 03/00 A3010 RMK AO2 =
2014-10-20 01:35 METAR KOKV 200535Z AUTO 00000KT 10SM CLR 05/00 A3009 RMK AO2 =
2014-10-20 01:15 METAR KOKV 200515Z AUTO 00000KT 10SM CLR 05/00 A3010 RMK AO2 =
2014-10-20 00:55 METAR KOKV 200455Z AUTO 29003KT 10SM CLR 05/00 A3010 RMK AO2 =
2014-10-19 22:55 METAR KOKV 200255Z AUTO 23003KT 10SM CLR 08/00 A3011 RMK AO2 =
2014-10-19 22:35 METAR KOKV 200235Z AUTO 00000KT 10SM CLR 06/00 A3011 RMK AO2 =
2014-10-19 22:15 METAR KOKV 200215Z AUTO 28006KT 10SM CLR 08/00 A3010 RMK AO2 =
2014-10-19 21:55 METAR KOKV 200155Z AUTO 00000KT 10SM CLR 08/00 A3010 RMK AO2 =
2014-10-19 21:35 METAR KOKV 200135Z AUTO 27004KT 10SM CLR 08/00 A3010 RMK AO2 =
2014-10-19 21:15 METAR KOKV 200115Z AUTO 28003KT 10SM CLR 08/00 A3010 RMK AO2 =
2014-10-19 20:55 METAR KOKV 200055Z AUTO 00000KT 10SM CLR 08/00 A3010 RMK AO2 =
2014-10-19 20:35 METAR KOKV 200035Z AUTO 00000KT 10SM CLR 07/00 A3010 RMK AO2 =
2014-10-19 20:15 METAR KOKV 200015Z AUTO 00000KT 10SM CLR 06/00 A3009 RMK AO2 =
2014-10-19 19:55 METAR KOKV 192355Z AUTO 30004KT 10SM CLR 07/00 A3008 RMK AO2 =
2014-10-19 19:35 METAR KOKV 192335Z AUTO 00000KT 10SM CLR 08/00 A3008 RMK AO2 =
2014-10-19 19:15 METAR KOKV 192315Z AUTO 00000KT 10SM CLR 08/00 A3008 RMK AO2 =
2014-10-19 18:55 METAR KOKV 192255Z AUTO 00000KT 10SM CLR 10/M01 A3007 RMK AO2 =
2014-10-19 18:35 METAR KOKV 192235Z AUTO 00000KT 10SM CLR 11/M02 A3007 RMK AO2 =
2014-10-19 18:15 METAR KOKV 192215Z AUTO 30005KT 10SM CLR 13/M03 A3006 RMK AO2 =
2014-10-19 17:55 METAR KOKV 192155Z AUTO 32008KT 10SM CLR 13/M03 A3006 RMK AO2 =
2014-10-19 17:35 METAR KOKV 192135Z AUTO 33008G16KT 10SM CLR 14/M04 A3006 RMK AO2 =
2014-10-19 17:15 METAR KOKV 192115Z AUTO 31010G14KT 10SM CLR 15/M04 A3006 RMK AO2 =
2014-10-19 16:55 METAR KOKV 192055Z AUTO 32011G15KT 10SM CLR 15/M05 A3006 RMK AO2 =
2014-10-19 16:35 METAR KOKV 192035Z AUTO 28013KT 10SM CLR 15/M04 A3006 RMK AO2 =
2014-10-19 16:15 METAR KOKV 192015Z AUTO 30016KT 10SM CLR 15/M03 A3006 RMK AO2 =
2014-10-19 15:55 METAR KOKV 191955Z AUTO 30012KT 10SM CLR 15/M05 A3006 RMK AO2 =
2014-10-19 15:35 METAR KOKV 191935Z AUTO 31016G21KT 10SM CLR 15/M04 A3006 RMK AO2 =
2014-10-19 15:15 METAR KOKV 191915Z AUTO 30011G19KT 10SM CLR 15/M04 A3006 RMK AO2 =
2014-10-19 14:55 METAR KOKV 191855Z AUTO 29016KT 10SM CLR 15/M03 A3006 RMK AO2 =
2014-10-19 14:35 METAR KOKV 191835Z AUTO 27013KT 10SM CLR 14/M03 A3006 RMK AO2 =
2014-10-19 14:15 METAR KOKV 191815Z AUTO 28013G19KT 10SM CLR 14/M02 A3006 RMK AO2 =
2014-10-19 13:55 METAR KOKV 191755Z AUTO 34009G19KT 310V010 10SM CLR 14/M03 A3007 RMK AO2 =

Support USWX by starting your Amazon purchase here.